Terminal Aerodrome Forecast
Issued by NWS Duluth, MN

Current Version | Previous Version | Text Only | Print | Product List | Glossary On
Versions: 1 2 3 4 5 6 7 8 9 10 11 12 13 14 15 16 17 18 19 20 21 22 23 24 25 26 27 28 29 30 31 32
000
FTUS43 KDLH 050911 AAB
TAFDLH
TAF AMD
KDLH 050911Z 0509/0606 06005KT P6SM OVC010
     FM051400 11009KT P6SM SCT010 BKN100
     FM051900 15010KT P6SM BKN060
     FM060100 11005KT P6SM VCSH OVC050 WS020/20035KT=

USA.gov is the U.S. government's official web portal to all federal, state and local government web resources and services.